Airfield :
LOGIN :

Register | Disclaimer

   EN    FR    IT 

 










Legend :    VFR   Marginal VFR   IFR   Intensive IFR   Very Intensive IFR
Visi :
Ceiling :
>= 8 km
>= 3000ft
5 to 8 km
1000 to 3000 ft
1500m to 5 km
500 to 1000 ft
800 to 1500m
200 to 500 ft
< 800m
< 200 ft
Symbols :   Thunderstorms  Fog  Heavy snow  Heavy precipitations  Wind > 20 kt
SIGMETs :     Misc.  Thunderstorms  Icing  Turbulence  Mountain Waves  Volcanic Ashes






- Airport Elevation : 3463 ft
- IATA code : ASR


LTAU - Erkilet AB

CURRENT METAR :
  • 142150Z 15003KT 6000 NSC 08/04 Q1019 NOSIG RMK RWY07 16003KT 090V250

EXPIRED METARs :
  • 142120Z 02009KT CAVOK 12/05 Q1018 NOSIG RMK RWY07 36005KT 320V020
  • 142050Z 06004KT 020V080 7000 NSC 07/04 Q1019 NOSIG RMK RWY07 08004KT 050V120
  • 142020Z VRB02KT 8000 NSC 07/03 Q1019 NOSIG RMK RWY07 VRB02KT
  • 142013Z 00000KT 6000 NSC 07/03 Q1018 NOSIG
  • 141950Z 00000KT 3200 BR NSC 07/03 Q1018 BECMG 9999 NSW
  • 141937Z 00000KT 3500 BR NSC 08/03 Q1018 BECMG 9999 NSW RMK RWY07 VRB02KT
  • 141920Z 00000KT 6000 NSC 08/03 Q1018 NOSIG RMK RWY07 VRB02KT
  • 141850Z 04004KT CAVOK 10/03 Q1018 NOSIG RMK RWY07 VRB02KT

TAF TAF LTAU
Valid from the 14 at 18:00 until the 15 at 18:00 UTC


141640Z 1418/1518 VRB02KT CAVOK
BECMG 1501/1504 SCT040
PROB30
TEMPO 1511/1515 27015G25KT -TSRA FEW030CB BKN035



MET'MAP, your aeronautical weather chart ! - Copyright ORBIFLY December 2007 - Disclaimer

ORBIFLY MET'MAP TEAM :

Programming & Development : Alexandra Zaïnal
Concept & Development : Baudouin d'Aumeries
Co-Development & Prog : Marc-Olivier Méhu
Technical & hardware support : Manuel Goepfert

Contact : metmap@orbifly.com




SOURCES & CREDITS :

   NOAA